createdAt,value
2023-01-17T00:00:56.908Z,71.83
2023-01-17T00:03:27.947Z,71.96
2023-01-17T00:06:16.834Z,71.70
2023-01-17T00:09:05.512Z,72.25
2023-01-17T00:11:35.715Z,72.05
2023-01-17T00:14:05.951Z,71.97
2023-01-17T00:16:36.170Z,71.50
2023-01-17T00:19:24.812Z,71.90
2023-01-17T00:22:13.602Z,72.15
2023-01-17T00:25:02.182Z,72.03
2023-01-17T00:27:32.194Z,71.76
2023-01-17T00:30:02.244Z,72.03
2023-01-17T00:32:32.232Z,71.89
2023-01-17T00:35:02.299Z,71.62
2023-01-17T00:37:32.324Z,71.96
2023-01-17T00:40:02.573Z,71.82
2023-01-17T00:42:32.735Z,71.81
2023-01-17T00:45:21.857Z,72.02
2023-01-17T00:48:10.478Z,71.84
2023-01-17T00:50:58.950Z,72.10
2023-01-17T00:53:47.481Z,72.04
2023-01-17T00:56:36.230Z,71.82
2023-01-17T00:59:24.791Z,71.82
2023-01-17T01:02:13.448Z,71.99
2023-01-17T01:05:02.272Z,72.07
2023-01-17T01:07:51.038Z,71.83
2023-01-17T01:10:39.841Z,72.15
2023-01-17T01:13:28.522Z,71.64
2023-01-17T01:16:23.749Z,72.05
2023-01-17T01:19:12.276Z,71.80
2023-01-17T01:22:00.986Z,72.09
2023-01-17T01:24:50.061Z,72.01
2023-01-17T01:27:38.666Z,71.85
2023-01-17T01:30:28.075Z,72.14
2023-01-17T01:33:16.974Z,72.08
2023-01-17T01:35:47.089Z,72.31
2023-01-17T01:38:19.978Z,72.45
2023-01-17T01:40:53.711Z,72.21
2023-01-17T01:43:48.359Z,72.60
2023-01-17T01:46:19.483Z,72.18
2023-01-17T01:48:52.644Z,72.31
2023-01-17T01:51:28.124Z,72.88
2023-01-17T01:54:07.459Z,72.70
2023-01-17T01:56:39.451Z,72.73
2023-01-17T01:59:14.033Z,72.70
2023-01-17T02:01:44.239Z,72.83
2023-01-17T02:04:15.382Z,73.07
2023-01-17T02:06:51.811Z,73.12
2023-01-17T02:09:22.187Z,73.14
2023-01-17T02:11:53.130Z,72.89
2023-01-17T02:14:23.436Z,73.01
2023-01-17T02:17:12.044Z,73.48
2023-01-17T02:20:30.097Z,73.96
2023-01-17T02:23:18.866Z,73.66
2023-01-17T02:26:21.295Z,73.71
2023-01-17T02:29:11.031Z,73.81
2023-01-17T02:31:58.640Z,74.15
2023-01-17T02:34:57.725Z,73.75
2023-01-17T02:37:50.735Z,73.48
2023-01-17T02:40:27.258Z,73.26
2023-01-17T02:43:02.964Z,73.36
2023-01-17T02:45:33.088Z,73.33
2023-01-17T02:48:08.206Z,73.77
2023-01-17T02:50:56.521Z,73.43
2023-01-17T02:53:38.783Z,73.88
2023-01-17T02:56:34.713Z,73.62
2023-01-17T02:59:11.738Z,73.34
2023-01-17T03:02:06.859Z,73.13
2023-01-17T03:04:56.732Z,73.46
2023-01-17T03:07:29.466Z,73.51
2023-01-17T03:10:04.863Z,73.46
2023-01-17T03:12:38.907Z,73.48
2023-01-17T03:15:14.053Z,73.20
2023-01-17T03:17:50.712Z,73.70
2023-01-17T03:20:22.648Z,73.05
2023-01-17T03:22:53.010Z,73.40
2023-01-17T03:25:23.075Z,73.37
2023-01-17T03:27:53.204Z,73.31
2023-01-17T03:30:23.351Z,73.34
2023-01-17T03:32:53.546Z,73.44
2023-01-17T03:35:23.782Z,73.07
2023-01-17T03:37:53.929Z,73.19
2023-01-17T03:40:24.086Z,73.21
2023-01-17T03:42:54.223Z,73.34
2023-01-17T03:45:24.338Z,73.42
2023-01-17T03:47:56.914Z,73.32
2023-01-17T03:50:27.189Z,73.15
2023-01-17T03:52:57.654Z,73.11
2023-01-17T03:55:27.947Z,73.21
2023-01-17T03:57:58.089Z,73.16
2023-01-17T04:00:28.253Z,73.48
2023-01-17T04:02:58.466Z,73.34
2023-01-17T04:05:28.601Z,73.30
2023-01-17T04:07:58.702Z,72.95
2023-01-17T04:10:28.780Z,73.17
2023-01-17T04:12:58.960Z,73.09
2023-01-17T04:15:29.401Z,73.50
2023-01-17T04:17:59.969Z,73.10
2023-01-17T04:20:33.648Z,73.17
2023-01-17T04:23:04.722Z,73.17
2023-01-17T04:25:35.016Z,72.93
2023-01-17T04:28:05.410Z,72.78
2023-01-17T04:30:35.586Z,72.78
2023-01-17T04:33:05.777Z,73.09
2023-01-17T04:35:36.291Z,72.82
2023-01-17T04:38:06.434Z,73.11
2023-01-17T04:40:36.548Z,73.07
2023-01-17T04:43:06.667Z,73.25
2023-01-17T04:45:38.871Z,73.27
2023-01-17T04:48:12.746Z,72.98
2023-01-17T04:50:42.921Z,73.07
2023-01-17T04:53:13.084Z,73.06
2023-01-17T04:55:46.834Z,73.10
2023-01-17T04:58:17.001Z,73.41
2023-01-17T05:00:50.993Z,72.99
2023-01-17T05:03:23.134Z,72.87
2023-01-17T05:05:53.255Z,72.96
2023-01-17T05:08:23.413Z,73.02
2023-01-17T05:10:54.681Z,73.16
2023-01-17T05:13:24.804Z,73.11
2023-01-17T05:15:57.478Z,72.96
2023-01-17T05:18:27.727Z,73.07
2023-01-17T05:21:04.703Z,73.86
2023-01-17T05:23:34.871Z,73.66
2023-01-17T05:26:05.057Z,73.51
2023-01-17T05:28:35.903Z,73.67
2023-01-17T05:31:06.474Z,73.49
2023-01-17T05:33:37.199Z,73.59
2023-01-17T05:36:07.950Z,74.07
2023-01-17T05:38:38.036Z,73.73
2023-01-17T05:41:08.195Z,74.20
2023-01-17T05:43:38.668Z,73.83
2023-01-17T05:46:08.867Z,73.96
2023-01-17T05:48:39.055Z,74.14
2023-01-17T05:51:09.206Z,74.24
2023-01-17T05:53:39.378Z,74.15
2023-01-17T05:56:09.517Z,73.91
2023-01-17T05:58:40.244Z,73.94
2023-01-17T06:01:10.467Z,73.97
2023-01-17T06:03:40.657Z,74.15
2023-01-17T06:06:12.022Z,74.14
2023-01-17T06:08:42.136Z,74.56
2023-01-17T06:11:12.229Z,74.36
2023-01-17T06:13:42.393Z,74.37
2023-01-17T06:16:12.649Z,74.52
2023-01-17T06:18:43.034Z,74.59
2023-01-17T06:21:14.812Z,74.44
2023-01-17T06:23:55.364Z,74.31
2023-01-17T06:26:26.114Z,74.40
2023-01-17T06:28:56.181Z,74.75
2023-01-17T06:31:26.596Z,74.64
2023-01-17T06:33:56.743Z,74.70
2023-01-17T06:36:26.832Z,74.46
2023-01-17T06:38:57.699Z,74.76
2023-01-17T06:41:27.879Z,74.58
2023-01-17T06:43:58.124Z,75.03
2023-01-17T06:46:28.355Z,75.05
2023-01-17T06:48:58.473Z,75.05
2023-01-17T06:51:28.611Z,74.80
2023-01-17T06:53:58.783Z,75.02
2023-01-17T06:56:31.695Z,74.67
2023-01-17T06:59:01.764Z,74.73
2023-01-17T07:01:32.004Z,75.18
2023-01-17T07:04:03.761Z,75.13
2023-01-17T07:06:36.473Z,75.49
2023-01-17T07:09:06.669Z,75.28
2023-01-17T07:11:36.898Z,75.12
2023-01-17T07:14:14.669Z,75.53
2023-01-17T07:16:46.304Z,75.26
2023-01-17T07:19:16.520Z,75.17
2023-01-17T07:21:46.951Z,75.53
2023-01-17T07:24:17.150Z,75.49
2023-01-17T07:26:51.759Z,75.75
2023-01-17T07:29:22.012Z,75.09
2023-01-17T07:31:52.127Z,75.73
2023-01-17T07:34:22.346Z,75.57
2023-01-17T07:36:54.584Z,75.69
2023-01-17T07:39:24.799Z,75.13
2023-01-17T07:41:55.020Z,75.96
2023-01-17T07:44:25.156Z,76.00
2023-01-17T07:46:55.656Z,75.89
2023-01-17T07:49:25.839Z,75.75
2023-01-17T07:51:56.002Z,75.88
2023-01-17T07:54:26.247Z,75.82
2023-01-17T07:56:56.410Z,75.77
2023-01-17T07:59:26.610Z,75.73
2023-01-17T08:01:56.919Z,76.19
2023-01-17T08:04:27.799Z,75.84
2023-01-17T08:07:00.612Z,75.81
2023-01-17T08:09:31.070Z,76.23
2023-01-17T08:12:01.384Z,75.90
2023-01-17T08:14:31.603Z,76.26
2023-01-17T08:17:06.733Z,76.47
2023-01-17T08:19:37.031Z,76.13
2023-01-17T08:22:08.310Z,75.99
2023-01-17T08:24:38.789Z,76.43
2023-01-17T08:27:09.332Z,75.96
2023-01-17T08:29:42.934Z,76.22
2023-01-17T08:32:13.213Z,76.31
2023-01-17T08:34:43.428Z,76.16
2023-01-17T08:37:13.631Z,75.87
2023-01-17T08:39:43.882Z,75.70
2023-01-17T08:42:14.002Z,76.16
2023-01-17T08:44:44.307Z,75.81
2023-01-17T08:47:14.507Z,76.12
2023-01-17T08:49:44.684Z,75.74
2023-01-17T08:52:15.652Z,75.73
2023-01-17T08:54:45.740Z,75.51
2023-01-17T08:57:15.854Z,75.65
2023-01-17T08:59:46.057Z,75.46
2023-01-17T09:02:19.016Z,75.76
2023-01-17T09:04:50.229Z,75.60
2023-01-17T09:07:21.164Z,75.17
2023-01-17T09:09:52.824Z,75.23
2023-01-17T09:12:23.024Z,75.63
2023-01-17T09:14:53.201Z,75.45
2023-01-17T09:17:23.404Z,75.30
2023-01-17T09:19:53.476Z,75.39
2023-01-17T09:22:23.629Z,75.23
2023-01-17T09:24:53.717Z,75.45
2023-01-17T09:27:23.878Z,75.20
2023-01-17T09:29:53.941Z,74.91
2023-01-17T09:32:24.279Z,74.99
2023-01-17T09:34:54.379Z,75.00
2023-01-17T09:37:24.566Z,74.80
2023-01-17T09:39:54.606Z,74.35
2023-01-17T09:42:40.692Z,74.33
2023-01-17T09:45:18.287Z,73.89
2023-01-17T09:47:53.862Z,74.03
2023-01-17T09:50:52.988Z,73.94
2023-01-17T09:53:23.227Z,73.64
2023-01-17T09:56:09.397Z,73.25
2023-01-17T09:59:16.844Z,72.86
2023-01-17T10:01:51.772Z,73.26
2023-01-17T10:04:59.827Z,72.69
2023-01-17T10:08:11.773Z,72.33
2023-01-17T10:11:10.211Z,72.68
2023-01-17T10:13:52.903Z,72.67
2023-01-17T10:16:32.127Z,72.40
2023-01-17T10:19:12.147Z,72.60
2023-01-17T10:22:10.417Z,72.43
2023-01-17T10:25:13.261Z,72.27
2023-01-17T10:28:00.402Z,72.38
2023-01-17T10:30:35.140Z,72.60
2023-01-17T10:33:16.038Z,72.27
2023-01-17T10:36:04.144Z,72.05
2023-01-17T10:38:37.754Z,72.55
2023-01-17T10:41:30.979Z,72.27
2023-01-17T10:44:30.270Z,72.30
2023-01-17T10:47:12.500Z,71.92
2023-01-17T10:49:45.653Z,72.02
2023-01-17T10:52:46.462Z,71.64
2023-01-17T10:55:48.071Z,71.50
2023-01-17T10:58:18.296Z,71.62
2023-01-17T11:01:01.394Z,71.67
2023-01-17T11:03:32.290Z,71.73
2023-01-17T11:06:22.756Z,71.10
2023-01-17T11:08:56.920Z,71.02
2023-01-17T11:11:33.429Z,70.79
2023-01-17T11:14:07.991Z,71.04
2023-01-17T11:16:38.329Z,71.18
2023-01-17T11:19:16.605Z,70.53
2023-01-17T11:21:53.821Z,70.45
2023-01-17T11:24:32.134Z,70.54
2023-01-17T11:27:07.625Z,70.74
2023-01-17T11:29:39.830Z,70.64
2023-01-17T11:32:32.168Z,69.42
2023-01-17T11:35:15.628Z,69.71
2023-01-17T11:38:17.874Z,68.88
2023-01-17T11:40:54.092Z,69.75
2023-01-17T11:43:26.466Z,70.24
2023-01-17T11:46:20.649Z,69.70
2023-01-17T11:48:55.891Z,70.09
2023-01-17T11:51:31.082Z,70.06
2023-01-17T11:54:33.628Z,69.53
2023-01-17T11:57:04.172Z,70.23
2023-01-17T11:59:42.609Z,69.87
2023-01-17T12:03:03.901Z,69.73
2023-01-17T12:05:42.839Z,70.16
2023-01-17T12:08:19.913Z,70.30
2023-01-17T12:11:01.043Z,70.38
2023-01-17T12:14:01.223Z,70.39
2023-01-17T12:16:58.867Z,69.74
2023-01-17T12:19:47.092Z,70.05
2023-01-17T12:22:27.091Z,70.57
2023-01-17T12:25:16.087Z,70.23
2023-01-17T12:27:56.614Z,70.25
2023-01-17T12:30:47.678Z,70.58
2023-01-17T12:33:39.565Z,70.10
2023-01-17T12:36:19.442Z,70.29
2023-01-17T12:38:49.678Z,70.35
2023-01-17T12:41:26.586Z,70.33
2023-01-17T12:43:59.983Z,70.06
2023-01-17T12:46:49.234Z,69.85
2023-01-17T12:49:45.974Z,69.57
2023-01-17T12:52:48.629Z,69.75
2023-01-17T12:55:35.796Z,70.21
2023-01-17T12:58:12.330Z,69.84
2023-01-17T13:00:45.538Z,69.83
2023-01-17T13:03:31.788Z,69.34
2023-01-17T13:06:03.465Z,69.70
2023-01-17T13:08:42.766Z,69.49
2023-01-17T13:11:15.912Z,69.79
2023-01-17T13:13:47.458Z,70.00
2023-01-17T13:16:21.611Z,69.75
2023-01-17T13:18:52.601Z,69.90
2023-01-17T13:21:33.048Z,69.56
2023-01-17T13:24:09.215Z,69.72
2023-01-17T13:26:57.881Z,69.16
2023-01-17T13:29:58.957Z,69.46
2023-01-17T13:32:47.134Z,69.40
2023-01-17T13:35:44.992Z,69.82
2023-01-17T13:38:41.003Z,70.01
2023-01-17T13:41:28.803Z,69.95
2023-01-17T13:44:19.104Z,70.17
2023-01-17T13:46:54.932Z,69.89
2023-01-17T13:49:34.376Z,69.98
2023-01-17T13:52:19.431Z,69.95
2023-01-17T13:54:54.797Z,70.16
2023-01-17T13:57:33.018Z,69.99
2023-01-17T14:00:24.413Z,69.47
2023-01-17T14:02:55.593Z,69.95
2023-01-17T14:05:51.176Z,69.57
2023-01-17T14:08:22.140Z,69.94
2023-01-17T14:11:08.446Z,69.71
2023-01-17T14:13:40.293Z,70.08
2023-01-17T14:16:22.492Z,69.80
2023-01-17T14:18:54.110Z,70.18
2023-01-17T14:21:27.613Z,69.82
2023-01-17T14:24:13.269Z,69.91
2023-01-17T14:26:51.797Z,69.73
2023-01-17T14:29:46.565Z,69.56
2023-01-17T14:32:20.344Z,70.08
2023-01-17T14:34:52.383Z,69.94
2023-01-17T14:37:29.561Z,69.99
2023-01-17T14:40:00.866Z,69.82
2023-01-17T14:42:33.285Z,70.15
2023-01-17T14:45:09.139Z,69.79
2023-01-17T14:47:46.037Z,69.92
2023-01-17T14:50:23.084Z,69.97
2023-01-17T14:53:11.566Z,69.64
2023-01-17T14:55:47.732Z,69.83
2023-01-17T14:58:18.055Z,69.94
2023-01-17T15:00:50.266Z,70.00
2023-01-17T15:03:20.781Z,69.82
2023-01-17T15:05:53.612Z,70.05
2023-01-17T15:08:30.905Z,70.25
2023-01-17T15:11:09.652Z,70.16
2023-01-17T15:13:45.312Z,70.14
2023-01-17T15:16:26.078Z,70.35
2023-01-17T15:18:57.526Z,70.26
2023-01-17T15:21:32.221Z,70.02
2023-01-17T15:24:08.493Z,70.12
2023-01-17T15:26:45.208Z,69.99
2023-01-17T15:29:33.561Z,69.68
2023-01-17T15:32:08.005Z,70.09
2023-01-17T15:34:44.301Z,70.19
2023-01-17T15:37:30.017Z,69.82
2023-01-17T15:40:18.836Z,69.85
2023-01-17T15:42:59.030Z,69.96
2023-01-17T15:45:31.503Z,70.43
2023-01-17T15:48:39.539Z,69.77
2023-01-17T15:51:12.095Z,70.11
2023-01-17T15:53:42.941Z,70.13
2023-01-17T15:56:31.918Z,69.77
2023-01-17T15:59:22.777Z,69.93
2023-01-17T16:01:57.383Z,70.17
2023-01-17T16:04:38.017Z,70.04
2023-01-17T16:07:20.685Z,70.11
2023-01-17T16:09:51.074Z,70.04
2023-01-17T16:12:21.463Z,70.10
2023-01-17T16:15:10.871Z,70.42
2023-01-17T16:17:46.897Z,70.01
2023-01-17T16:20:43.381Z,70.41
2023-01-17T16:23:13.952Z,70.63
2023-01-17T16:25:44.825Z,70.32
2023-01-17T16:28:15.384Z,70.65
2023-01-17T16:30:48.737Z,70.38
2023-01-17T16:33:19.147Z,70.61
2023-01-17T16:35:51.435Z,70.21
2023-01-17T16:38:22.080Z,70.45
2023-01-17T16:40:54.800Z,70.55
2023-01-17T16:43:25.172Z,70.70
2023-01-17T16:45:56.142Z,70.42
2023-01-17T16:48:26.402Z,70.32
2023-01-17T16:50:56.579Z,70.78
2023-01-17T16:53:28.727Z,70.75
2023-01-17T16:56:19.180Z,70.65
2023-01-17T16:58:56.903Z,70.55
2023-01-17T17:01:36.884Z,70.56
2023-01-17T17:04:17.188Z,70.40
2023-01-17T17:06:47.681Z,70.50
2023-01-17T17:09:18.770Z,70.76
2023-01-17T17:11:48.839Z,70.93
2023-01-17T17:14:19.021Z,70.73
2023-01-17T17:16:52.065Z,70.61
2023-01-17T17:19:22.954Z,70.92
2023-01-17T17:21:53.186Z,70.62
2023-01-17T17:24:23.488Z,70.58
2023-01-17T17:26:53.570Z,70.74
2023-01-17T17:29:23.745Z,70.67
2023-01-17T17:31:54.132Z,69.92
2023-01-17T17:34:26.526Z,69.69
2023-01-17T17:36:56.651Z,69.74
2023-01-17T17:39:26.862Z,69.29
2023-01-17T17:42:00.178Z,68.95
2023-01-17T17:44:30.630Z,69.30
2023-01-17T17:47:01.159Z,69.30
2023-01-17T17:49:31.557Z,69.13
2023-01-17T17:52:08.846Z,69.22
2023-01-17T17:54:39.170Z,68.96
2023-01-17T17:57:09.961Z,69.00
2023-01-17T17:59:40.212Z,69.45
2023-01-17T18:02:11.430Z,69.08
2023-01-17T18:04:41.724Z,69.71
2023-01-17T18:18:02.089Z,70.02
2023-01-17T18:20:32.590Z,70.04
2023-01-17T18:23:02.772Z,70.15
2023-01-17T18:25:36.438Z,69.82
2023-01-17T18:28:06.667Z,69.91
2023-01-17T18:30:38.679Z,70.30
2023-01-17T18:33:19.040Z,70.20
2023-01-17T18:35:57.870Z,70.25
2023-01-17T18:38:45.257Z,70.33
2023-01-17T18:41:21.303Z,70.65
2023-01-17T18:44:05.695Z,70.41
2023-01-17T18:46:37.126Z,70.38
2023-01-17T18:49:07.733Z,70.47
2023-01-17T18:51:38.044Z,69.87
2023-01-17T18:54:09.080Z,70.30
2023-01-17T18:57:02.481Z,70.04
2023-01-17T18:59:32.610Z,70.03
2023-01-17T19:02:05.842Z,69.32
2023-01-17T19:04:38.036Z,69.32
2023-01-17T19:07:12.570Z,69.59
2023-01-17T19:09:49.891Z,69.52
2023-01-17T19:12:21.085Z,68.97
2023-01-17T19:14:53.019Z,68.72
2023-01-17T19:17:23.273Z,68.42
2023-01-17T19:19:54.161Z,68.39
2023-01-17T19:22:25.027Z,68.13
2023-01-17T19:24:55.338Z,68.38
2023-01-17T19:27:26.249Z,68.28
2023-01-17T19:29:56.382Z,68.25
2023-01-17T19:32:26.462Z,68.33
2023-01-17T19:34:57.067Z,68.52
2023-01-17T19:37:28.192Z,68.30
2023-01-17T19:39:58.399Z,68.59
2023-01-17T19:42:28.897Z,68.24
2023-01-17T19:45:03.296Z,68.27
2023-01-17T19:47:38.309Z,68.44
2023-01-17T19:50:09.891Z,68.36
2023-01-17T19:52:40.089Z,68.42
2023-01-17T19:55:10.370Z,68.45
2023-01-17T19:57:40.671Z,68.85
2023-01-17T20:00:13.308Z,68.85
2023-01-17T20:02:43.535Z,68.30
2023-01-17T20:05:13.647Z,68.41
2023-01-17T20:07:43.886Z,68.64
2023-01-17T20:10:14.094Z,68.30
2023-01-17T20:12:44.308Z,68.30
2023-01-17T20:15:14.473Z,68.31
2023-01-17T20:17:44.726Z,68.55
2023-01-17T20:20:15.925Z,68.87
2023-01-17T20:22:46.485Z,68.71
2023-01-17T20:25:16.730Z,68.87
2023-01-17T20:27:46.877Z,68.99
2023-01-17T20:30:24.651Z,69.04
2023-01-17T20:32:55.766Z,68.84
2023-01-17T20:35:26.122Z,68.92
2023-01-17T20:37:56.483Z,69.38
2023-01-17T20:40:29.724Z,69.17
2023-01-17T20:43:05.244Z,68.86
2023-01-17T20:45:41.157Z,69.25
2023-01-17T20:48:14.275Z,68.91
2023-01-17T20:51:13.550Z,69.14
2023-01-17T20:53:48.290Z,69.40
2023-01-17T20:56:42.676Z,68.91
2023-01-17T20:59:15.921Z,69.17
2023-01-17T21:01:46.561Z,69.30
2023-01-17T21:04:18.173Z,69.50
2023-01-17T21:06:51.757Z,69.56
2023-01-17T21:09:31.699Z,69.79
2023-01-17T21:12:04.957Z,69.64
2023-01-17T21:14:41.730Z,69.45
2023-01-17T21:17:11.898Z,70.01
2023-01-17T21:19:43.117Z,69.52
2023-01-17T21:22:16.762Z,69.30
2023-01-17T21:24:46.984Z,69.67
2023-01-17T21:27:17.216Z,69.59
2023-01-17T21:29:47.504Z,69.30
2023-01-17T21:32:34.708Z,69.35
2023-01-17T21:35:08.012Z,69.71
2023-01-17T21:37:45.087Z,69.54
2023-01-17T21:40:15.580Z,68.92
2023-01-17T21:43:00.239Z,69.30
2023-01-17T21:49:21.625Z,69.82
2023-01-17T21:52:16.088Z,70.17
2023-01-17T21:55:10.714Z,69.93
2023-01-17T21:57:59.644Z,69.80
2023-01-17T22:00:29.978Z,69.94
2023-01-17T22:03:00.254Z,69.97
2023-01-17T22:05:30.461Z,70.02
2023-01-17T22:08:12.885Z,70.43
2023-01-17T22:10:45.898Z,69.62
2023-01-17T22:13:18.428Z,70.45
2023-01-17T22:15:58.739Z,70.30
2023-01-17T22:18:29.889Z,69.80
2023-01-17T22:21:04.551Z,70.62
2023-01-17T22:23:35.489Z,69.90
2023-01-17T22:26:07.709Z,70.30
2023-01-17T22:28:39.690Z,70.33
2023-01-17T22:31:14.517Z,70.15
2023-01-17T22:33:46.737Z,70.20
2023-01-17T22:36:16.988Z,70.01
2023-01-17T22:38:47.492Z,69.77
2023-01-17T22:41:23.287Z,69.98
2023-01-17T22:44:02.592Z,69.61
2023-01-17T22:46:35.743Z,69.93
2023-01-17T22:49:08.688Z,69.82
2023-01-17T22:51:42.915Z,70.19
2023-01-17T22:54:13.077Z,70.57
2023-01-17T22:56:43.237Z,70.72
2023-01-17T22:59:13.673Z,70.39
2023-01-17T23:01:43.887Z,70.86
2023-01-17T23:04:16.208Z,70.37
2023-01-17T23:06:46.348Z,70.96
2023-01-17T23:09:17.459Z,70.40
2023-01-17T23:11:52.744Z,70.83
2023-01-17T23:14:54.019Z,70.75
2023-01-17T23:17:43.088Z,70.94
2023-01-17T23:20:14.204Z,70.54
2023-01-17T23:22:44.613Z,70.60
2023-01-17T23:25:14.793Z,70.73
2023-01-17T23:28:05.984Z,71.17
2023-01-17T23:30:40.390Z,71.04
2023-01-17T23:33:13.417Z,71.20
2023-01-17T23:35:45.715Z,70.82
2023-01-17T23:38:28.736Z,70.86
2023-01-17T23:41:25.457Z,70.65
2023-01-17T23:43:56.942Z,70.95
2023-01-17T23:46:27.604Z,70.42
2023-01-17T23:48:57.788Z,70.63
2023-01-17T23:51:29.932Z,70.31
2023-01-17T23:54:05.528Z,70.65
2023-01-17T23:56:35.870Z,71.04
2023-01-17T23:59:06.341Z,70.71
